createdAt,value
2016-11-19T00:00:19.508Z,0
2016-11-19T00:01:19.492Z,0
2016-11-19T00:02:19.452Z,0
2016-11-19T00:03:19.769Z,0
2016-11-19T00:04:19.445Z,0
2016-11-19T00:05:19.420Z,0
2016-11-19T00:06:19.516Z,0
2016-11-19T00:07:19.393Z,0
2016-11-19T00:08:19.382Z,0
2016-11-19T00:09:19.365Z,0
2016-11-19T00:10:19.677Z,0
2016-11-19T00:11:19.653Z,0
2016-11-19T00:12:19.309Z,0
2016-11-19T00:13:19.317Z,0
2016-11-19T00:14:19.289Z,0
2016-11-19T00:15:19.288Z,0
2016-11-19T00:16:20.307Z,0
2016-11-19T00:17:19.743Z,0
2016-11-19T00:18:19.920Z,0
2016-11-19T00:19:20.860Z,0
2016-11-19T00:20:19.337Z,0
2016-11-19T00:21:19.196Z,0
2016-11-19T00:22:19.179Z,0
2016-11-19T00:23:19.191Z,0
2016-11-19T00:24:19.145Z,0
2016-11-19T00:25:19.146Z,0
2016-11-19T00:26:19.126Z,0
2016-11-19T00:27:19.117Z,0
2016-11-19T00:28:19.112Z,0
2016-11-19T00:29:19.120Z,0
2016-11-19T00:30:19.084Z,0
2016-11-19T00:31:19.251Z,0
2016-11-19T00:32:19.060Z,0
2016-11-19T00:33:19.069Z,0
2016-11-19T00:34:19.020Z,0
2016-11-19T00:35:19.019Z,0
2016-11-19T00:36:18.986Z,0
2016-11-19T00:37:19.324Z,0
2016-11-19T00:38:18.970Z,0
2016-11-19T00:39:18.946Z,0
2016-11-19T00:40:18.946Z,0
2016-11-19T00:41:18.921Z,0
2016-11-19T00:42:18.928Z,0
2016-11-19T00:43:18.920Z,0
2016-11-19T00:44:18.883Z,0
2016-11-19T00:45:18.882Z,0
2016-11-19T00:46:18.906Z,0
2016-11-19T00:47:20.358Z,0
2016-11-19T00:48:19.715Z,0
2016-11-19T00:49:19.678Z,0
2016-11-19T00:50:18.858Z,0
2016-11-19T00:51:18.787Z,0
2016-11-19T00:52:18.777Z,0
2016-11-19T00:53:18.796Z,0
2016-11-19T00:54:18.744Z,0
2016-11-19T00:55:18.739Z,0
2016-11-19T00:56:18.715Z,0
2016-11-19T00:57:18.712Z,0
2016-11-19T00:58:19.016Z,0
2016-11-19T00:59:18.717Z,0
2016-11-19T01:00:18.681Z,0
2016-11-19T01:01:18.658Z,0
2016-11-19T01:02:18.635Z,0
2016-11-19T01:03:18.648Z,0
2016-11-19T01:04:18.648Z,0
2016-11-19T01:05:18.601Z,0
2016-11-19T01:06:18.582Z,0
2016-11-19T01:07:18.599Z,0
2016-11-19T01:08:18.562Z,0
2016-11-19T01:09:18.568Z,0
2016-11-19T01:10:18.574Z,0
2016-11-19T01:11:18.596Z,0
2016-11-19T01:12:18.504Z,0
2016-11-19T01:13:18.549Z,0
2016-11-19T01:14:18.577Z,0
2016-11-19T01:15:18.603Z,0
2016-11-19T01:16:18.634Z,0
2016-11-19T01:17:18.600Z,0
2016-11-19T01:18:18.473Z,0
2016-11-19T01:19:18.478Z,0
2016-11-19T01:20:18.581Z,0
2016-11-19T01:21:18.495Z,0
2016-11-19T01:22:18.491Z,0
2016-11-19T01:23:18.505Z,0
2016-11-19T01:24:18.434Z,0
2016-11-19T01:25:18.492Z,0
2016-11-19T01:26:18.428Z,0
2016-11-19T01:27:18.432Z,0
2016-11-19T01:28:18.441Z,0
2016-11-19T01:29:18.637Z,0
2016-11-19T01:30:18.493Z,0
2016-11-19T01:31:18.565Z,0
2016-11-19T01:32:18.474Z,0
2016-11-19T01:33:20.451Z,0
2016-11-19T01:34:18.454Z,0
2016-11-19T01:35:19.083Z,0
2016-11-19T01:36:18.427Z,0
2016-11-19T01:37:18.351Z,0
2016-11-19T01:38:18.345Z,0
2016-11-19T01:39:18.351Z,0
2016-11-19T01:40:18.349Z,0
2016-11-19T01:41:18.356Z,0
2016-11-19T01:42:18.396Z,0
2016-11-19T01:43:18.329Z,0
2016-11-19T01:44:21.353Z,0
2016-11-19T01:45:20.785Z,0
2016-11-19T01:46:18.216Z,0
2016-11-19T01:47:18.180Z,0
2016-11-19T01:48:18.245Z,0
2016-11-19T01:49:18.207Z,0
2016-11-19T01:50:18.178Z,0
2016-11-19T01:51:18.187Z,0
2016-11-19T01:52:18.041Z,0
2016-11-19T01:53:18.420Z,0
2016-11-19T01:54:18.025Z,0
2016-11-19T01:55:18.045Z,0
2016-11-19T01:56:18.270Z,0
2016-11-19T01:57:18.080Z,0
2016-11-19T01:58:17.893Z,0
2016-11-19T01:59:18.140Z,0
2016-11-19T02:00:17.873Z,0
2016-11-19T02:01:17.888Z,0
2016-11-19T02:02:17.867Z,0
2016-11-19T02:03:17.856Z,0
2016-11-19T02:04:17.798Z,0
2016-11-19T02:05:19.496Z,0
2016-11-19T02:06:17.787Z,0
2016-11-19T02:07:17.752Z,0
2016-11-19T02:08:17.730Z,0
2016-11-19T02:09:17.721Z,0
2016-11-19T02:10:17.704Z,0
2016-11-19T02:11:17.696Z,0
2016-11-19T02:12:17.686Z,0
2016-11-19T02:13:17.695Z,0
2016-11-19T02:14:17.735Z,0
2016-11-19T02:15:17.652Z,0
2016-11-19T02:16:17.631Z,0
2016-11-19T02:17:17.632Z,0
2016-11-19T02:18:17.602Z,0
2016-11-19T02:19:17.739Z,0
2016-11-19T02:20:17.654Z,0
2016-11-19T02:21:17.558Z,0
2016-11-19T02:22:17.581Z,0
2016-11-19T02:23:17.848Z,0
2016-11-19T02:24:17.513Z,0
2016-11-19T02:25:17.497Z,0
2016-11-19T02:26:17.534Z,0
2016-11-19T02:27:19.444Z,0
2016-11-19T02:28:20.058Z,0
2016-11-19T02:29:21.413Z,0
2016-11-19T02:30:18.224Z,0
2016-11-19T02:31:18.800Z,0
2016-11-19T02:32:17.412Z,0
2016-11-19T02:33:17.394Z,0
2016-11-19T02:34:17.375Z,0
2016-11-19T02:35:17.724Z,0
2016-11-19T02:36:17.344Z,0
2016-11-19T02:37:17.351Z,0
2016-11-19T02:38:17.321Z,0
2016-11-19T02:39:17.328Z,0
2016-11-19T02:40:17.298Z,0
2016-11-19T02:41:17.595Z,0
2016-11-19T02:42:17.275Z,0
2016-11-19T02:43:17.362Z,0
2016-11-19T02:44:17.293Z,0
2016-11-19T02:45:17.339Z,0
2016-11-19T02:46:17.222Z,0
2016-11-19T02:47:17.212Z,0
2016-11-19T02:48:17.187Z,0
2016-11-19T02:49:17.171Z,0
2016-11-19T02:50:17.151Z,0
2016-11-19T02:51:17.146Z,0
2016-11-19T02:52:17.136Z,0
2016-11-19T02:53:17.441Z,0
2016-11-19T02:54:17.817Z,0
2016-11-19T02:55:17.105Z,0
2016-11-19T02:56:17.100Z,0
2016-11-19T02:57:17.152Z,0
2016-11-19T02:58:17.107Z,0
2016-11-19T02:59:17.082Z,0
2016-11-19T03:00:17.030Z,0
2016-11-19T03:01:17.051Z,0
2016-11-19T03:02:17.002Z,0
2016-11-19T03:03:16.977Z,0
2016-11-19T03:04:16.967Z,0
2016-11-19T03:05:16.951Z,0
2016-11-19T03:06:16.943Z,0
2016-11-19T03:07:16.934Z,0
2016-11-19T03:08:16.911Z,0
2016-11-19T03:09:16.903Z,0
2016-11-19T03:10:16.886Z,0
2016-11-19T03:11:16.883Z,0
2016-11-19T03:12:17.204Z,0
2016-11-19T03:13:16.989Z,0
2016-11-19T03:14:16.892Z,0
2016-11-19T03:15:16.836Z,0
2016-11-19T03:16:16.828Z,0
2016-11-19T03:17:16.802Z,0
2016-11-19T03:18:17.058Z,0
2016-11-19T03:19:16.793Z,0
2016-11-19T03:20:16.754Z,0
2016-11-19T03:21:16.745Z,0
2016-11-19T03:22:16.719Z,0
2016-11-19T03:23:16.698Z,0
2016-11-19T03:24:16.695Z,0
2016-11-19T03:25:16.793Z,0
2016-11-19T03:26:18.892Z,0
2016-11-19T03:27:17.390Z,0
2016-11-19T03:28:21.879Z,0
2016-11-19T03:29:21.374Z,0
2016-11-19T03:30:16.665Z,0
2016-11-19T03:31:16.636Z,0
2016-11-19T03:32:16.592Z,0
2016-11-19T03:33:16.920Z,0
2016-11-19T03:34:16.573Z,0
2016-11-19T03:35:16.558Z,0
2016-11-19T03:36:16.544Z,0
2016-11-19T03:37:16.592Z,0
2016-11-19T03:38:16.518Z,0
2016-11-19T03:39:16.553Z,0
2016-11-19T03:40:16.604Z,0
2016-11-19T03:41:16.519Z,0
2016-11-19T03:42:16.471Z,0
2016-11-19T03:43:16.465Z,0
2016-11-19T03:44:16.432Z,0
2016-11-19T03:45:16.418Z,0
2016-11-19T03:46:16.731Z,0
2016-11-19T03:47:16.511Z,0
2016-11-19T03:48:16.384Z,0
2016-11-19T03:49:16.376Z,0
2016-11-19T03:50:16.348Z,0
2016-11-19T03:51:16.344Z,0
2016-11-19T03:52:16.323Z,0
2016-11-19T03:53:16.304Z,0
2016-11-19T03:54:16.330Z,0
2016-11-19T03:55:16.288Z,0
2016-11-19T03:56:16.276Z,0
2016-11-19T03:57:20.035Z,0
2016-11-19T03:58:16.791Z,0
2016-11-19T03:59:16.550Z,0
2016-11-19T04:00:16.222Z,0
2016-11-19T04:01:16.220Z,0
2016-11-19T04:02:16.209Z,0
2016-11-19T04:03:16.237Z,0
2016-11-19T04:04:16.238Z,0
2016-11-19T04:05:16.255Z,0
2016-11-19T04:06:16.185Z,0
2016-11-19T04:07:16.190Z,0
2016-11-19T04:08:16.202Z,0
2016-11-19T04:09:16.180Z,0
2016-11-19T04:10:16.299Z,0
2016-11-19T04:11:16.452Z,0
2016-11-19T04:12:16.379Z,0
2016-11-19T04:13:16.152Z,0
2016-11-19T04:14:16.144Z,0
2016-11-19T04:15:16.155Z,0
2016-11-19T04:16:16.168Z,0
2016-11-19T04:17:16.171Z,0
2016-11-19T04:18:16.170Z,0
2016-11-19T04:19:16.112Z,0
2016-11-19T04:20:16.119Z,0
2016-11-19T04:21:16.126Z,0
2016-11-19T04:22:16.097Z,0
2016-11-19T04:23:16.110Z,0
2016-11-19T04:24:16.046Z,0
2016-11-19T04:25:16.058Z,0
2016-11-19T04:26:16.051Z,0
2016-11-19T04:27:16.393Z,0
2016-11-19T04:28:16.075Z,0
2016-11-19T04:29:16.076Z,0
2016-11-19T04:30:16.094Z,0
2016-11-19T04:31:16.088Z,0
2016-11-19T04:32:15.943Z,0
2016-11-19T04:33:15.969Z,0
2016-11-19T04:34:16.096Z,0
2016-11-19T04:35:16.031Z,0
2016-11-19T04:36:16.062Z,0
2016-11-19T04:37:15.881Z,0
2016-11-19T04:38:15.873Z,0
2016-11-19T04:39:15.909Z,0
2016-11-19T04:40:15.909Z,0
2016-11-19T04:41:15.900Z,0
2016-11-19T04:42:15.912Z,0
2016-11-19T04:43:15.862Z,0
2016-11-19T04:44:15.725Z,0
2016-11-19T04:45:15.721Z,0
2016-11-19T04:46:15.719Z,0
2016-11-19T04:47:16.109Z,0
2016-11-19T04:48:15.571Z,0
2016-11-19T04:49:15.870Z,0
2016-11-19T04:50:15.576Z,0
2016-11-19T04:51:15.535Z,0
2016-11-19T04:52:15.518Z,0
2016-11-19T04:53:15.519Z,0
2016-11-19T04:54:15.537Z,0
2016-11-19T04:55:16.280Z,0
2016-11-19T04:56:15.523Z,0
2016-11-19T04:57:15.792Z,0
2016-11-19T04:58:15.454Z,0
2016-11-19T04:59:15.457Z,0
2016-11-19T05:00:15.418Z,0
2016-11-19T05:01:15.419Z,0
2016-11-19T05:02:15.398Z,0
2016-11-19T05:03:15.469Z,0
2016-11-19T05:04:15.405Z,0
2016-11-19T05:05:15.628Z,0
2016-11-19T05:06:15.626Z,0
2016-11-19T05:07:15.318Z,0
2016-11-19T05:08:15.307Z,0
2016-11-19T05:09:15.426Z,0
2016-11-19T05:10:15.370Z,0
2016-11-19T05:11:15.858Z,0
2016-11-19T05:12:15.308Z,0
2016-11-19T05:13:15.249Z,0
2016-11-19T05:14:15.226Z,0
2016-11-19T05:15:15.221Z,0
2016-11-19T05:16:15.212Z,0
2016-11-19T05:17:15.202Z,0
2016-11-19T05:18:15.188Z,0
2016-11-19T05:19:15.164Z,0
2016-11-19T05:20:15.148Z,0
2016-11-19T05:21:15.218Z,0
2016-11-19T05:22:15.119Z,0
2016-11-19T05:23:15.123Z,0
2016-11-19T05:24:15.200Z,0
2016-11-19T05:25:15.426Z,0
2016-11-19T05:26:15.432Z,0
2016-11-19T05:27:15.074Z,0
2016-11-19T05:28:15.072Z,0
2016-11-19T05:29:15.045Z,0
2016-11-19T05:30:15.044Z,0
2016-11-19T05:31:15.019Z,0
2016-11-19T05:32:14.996Z,0
2016-11-19T05:33:15.001Z,0
2016-11-19T05:34:16.008Z,0
2016-11-19T05:35:14.984Z,0
2016-11-19T05:36:14.948Z,0
2016-11-19T05:37:17.357Z,0
2016-11-19T05:38:15.536Z,0
2016-11-19T05:39:16.229Z,0
2016-11-19T05:40:14.954Z,0
2016-11-19T05:41:14.924Z,0
2016-11-19T05:42:14.873Z,0
2016-11-19T05:43:14.856Z,0
2016-11-19T05:44:14.850Z,0
2016-11-19T05:45:14.837Z,0
2016-11-19T05:46:14.820Z,0
2016-11-19T05:47:14.823Z,0
2016-11-19T05:48:14.793Z,0
2016-11-19T05:49:14.771Z,0
2016-11-19T05:50:14.771Z,0
2016-11-19T05:51:14.822Z,0
2016-11-19T05:52:14.740Z,0
2016-11-19T05:53:14.750Z,0
2016-11-19T05:54:14.785Z,0
2016-11-19T05:55:14.907Z,0
2016-11-19T05:56:14.721Z,0
2016-11-19T05:57:15.343Z,0
2016-11-19T05:58:15.217Z,0
2016-11-19T05:59:14.657Z,0
2016-11-19T06:00:14.700Z,0
2016-11-19T06:01:14.739Z,0
2016-11-19T06:02:14.613Z,0
2016-11-19T06:03:14.597Z,0
2016-11-19T06:04:14.584Z,0
2016-11-19T06:05:14.582Z,0
2016-11-19T06:06:14.589Z,0
2016-11-19T06:07:14.553Z,0
2016-11-19T06:08:14.534Z,0
2016-11-19T06:09:14.655Z,0
2016-11-19T06:10:14.523Z,0
2016-11-19T06:11:14.869Z,0
2016-11-19T06:12:14.495Z,0
2016-11-19T06:13:14.480Z,0
2016-11-19T06:14:14.461Z,0
2016-11-19T06:15:14.762Z,0
2016-11-19T06:16:14.434Z,0
2016-11-19T06:17:14.422Z,0
2016-11-19T06:18:14.419Z,0
2016-11-19T06:19:14.399Z,0
2016-11-19T06:20:14.383Z,0
2016-11-19T06:21:14.382Z,0
2016-11-19T06:22:15.602Z,0
2016-11-19T06:23:15.631Z,0
2016-11-19T06:24:15.639Z,0
2016-11-19T06:25:14.450Z,0
2016-11-19T06:26:14.397Z,0
2016-11-19T06:27:14.293Z,0
2016-11-19T06:28:14.289Z,0
2016-11-19T06:29:14.262Z,0
2016-11-19T06:30:14.252Z,0
2016-11-19T06:31:14.259Z,0
2016-11-19T06:32:14.264Z,0
2016-11-19T06:33:14.393Z,0
2016-11-19T06:34:14.198Z,0
2016-11-19T06:35:14.188Z,0
2016-11-19T06:36:14.179Z,0
2016-11-19T06:37:14.191Z,0
2016-11-19T06:38:14.181Z,0
2016-11-19T06:39:18.000Z,0
2016-11-19T06:40:14.142Z,0
2016-11-19T06:41:14.101Z,0
2016-11-19T06:42:14.104Z,0
2016-11-19T06:43:14.082Z,0
2016-11-19T06:44:14.151Z,0
2016-11-19T06:45:14.066Z,0
2016-11-19T06:46:14.054Z,0
2016-11-19T06:47:14.079Z,0
2016-11-19T06:48:14.033Z,0
2016-11-19T06:49:14.020Z,0
2016-11-19T06:50:13.999Z,5
2016-11-19T06:51:13.982Z,5
2016-11-19T06:52:13.986Z,5
2016-11-19T06:53:14.271Z,5
2016-11-19T06:54:13.969Z,5
2016-11-19T06:55:13.929Z,5
2016-11-19T06:56:14.420Z,5
2016-11-19T06:57:14.227Z,5
2016-11-19T06:58:14.191Z,5
2016-11-19T06:59:14.364Z,5
2016-11-19T07:00:13.966Z,5
2016-11-19T07:01:16.205Z,10
2016-11-19T07:02:14.106Z,5
2016-11-19T07:03:14.158Z,10
2016-11-19T07:04:13.992Z,5
2016-11-19T07:05:13.932Z,10
2016-11-19T07:06:13.830Z,10
2016-11-19T07:07:14.067Z,10
2016-11-19T07:08:16.660Z,10
2016-11-19T07:09:13.928Z,10
2016-11-19T07:10:13.955Z,10
2016-11-19T07:11:13.937Z,10
2016-11-19T07:12:13.925Z,10
2016-11-19T07:13:14.131Z,10
2016-11-19T07:14:13.909Z,10
2016-11-19T07:15:13.909Z,10
2016-11-19T07:16:13.882Z,10
2016-11-19T07:17:13.871Z,15
2016-11-19T07:18:13.867Z,15
2016-11-19T07:19:13.883Z,15
2016-11-19T07:20:13.705Z,15
2016-11-19T07:21:13.881Z,15
2016-11-19T07:22:13.705Z,15
2016-11-19T07:23:13.696Z,15
2016-11-19T07:24:13.575Z,20
2016-11-19T07:25:13.562Z,20
2016-11-19T07:26:13.556Z,20
2016-11-19T07:27:13.547Z,25
2016-11-19T07:28:13.521Z,20
2016-11-19T07:29:13.839Z,20
2016-11-19T07:30:13.520Z,25
2016-11-19T07:31:13.473Z,20
2016-11-19T07:32:13.461Z,25
2016-11-19T07:33:13.484Z,25
2016-11-19T07:34:13.441Z,25
2016-11-19T07:35:13.429Z,25
2016-11-19T07:36:13.425Z,25
2016-11-19T07:37:13.547Z,25
2016-11-19T07:38:13.394Z,30
2016-11-19T07:39:13.396Z,30
2016-11-19T07:40:13.368Z,35
2016-11-19T07:41:13.349Z,30
2016-11-19T07:42:13.330Z,35
2016-11-19T07:43:13.328Z,35
2016-11-19T07:44:13.327Z,35
2016-11-19T07:45:13.322Z,35
2016-11-19T07:46:13.348Z,35
2016-11-19T07:47:13.274Z,35
2016-11-19T07:48:13.285Z,30
2016-11-19T07:49:13.256Z,40
2016-11-19T07:50:13.239Z,40
2016-11-19T07:51:20.226Z,40
2016-11-19T07:52:25.935Z,45
2016-11-19T07:53:13.199Z,45
2016-11-19T07:54:13.194Z,45
2016-11-19T07:55:13.198Z,50
2016-11-19T07:56:13.188Z,45
2016-11-19T07:57:13.154Z,50
2016-11-19T07:58:13.140Z,45
2016-11-19T07:59:13.186Z,50
2016-11-19T08:00:13.201Z,50
2016-11-19T08:01:29.269Z,50
2016-11-19T08:02:25.947Z,55
2016-11-19T08:03:13.088Z,50
2016-11-19T08:04:13.070Z,55
2016-11-19T08:05:23.651Z,55
2016-11-19T08:06:23.170Z,55
2016-11-19T08:07:13.036Z,50
2016-11-19T08:08:16.680Z,50
2016-11-19T08:09:18.430Z,50
2016-11-19T08:10:13.130Z,50
2016-11-19T08:13:28.513Z,50
2016-11-19T08:14:30.263Z,55
2016-11-19T08:15:12.933Z,55
2016-11-19T08:16:12.928Z,55
2016-11-19T08:17:12.922Z,50
2016-11-19T08:18:12.926Z,55
2016-11-19T08:19:12.881Z,55
2016-11-19T08:20:12.894Z,55
2016-11-19T08:21:12.869Z,60
2016-11-19T08:22:12.859Z,65
2016-11-19T08:23:12.834Z,65
2016-11-19T08:24:12.825Z,65
2016-11-19T08:25:20.546Z,70
2016-11-19T08:26:21.079Z,70
2016-11-19T08:27:17.970Z,75
2016-11-19T08:28:12.814Z,75
2016-11-19T08:29:21.288Z,75
2016-11-19T08:30:12.771Z,75
2016-11-19T08:31:12.734Z,70
2016-11-19T08:32:12.735Z,75
2016-11-19T08:33:12.705Z,65
2016-11-19T08:34:12.699Z,70
2016-11-19T08:35:12.726Z,70
2016-11-19T08:36:12.675Z,65
2016-11-19T08:37:12.672Z,65
2016-11-19T08:38:12.687Z,60
2016-11-19T08:39:12.685Z,65
2016-11-19T08:40:12.643Z,75
2016-11-19T08:41:12.632Z,75
2016-11-19T08:42:12.604Z,80
2016-11-19T08:43:12.593Z,80
2016-11-19T08:44:12.604Z,75
2016-11-19T08:45:12.571Z,75
2016-11-19T08:46:12.551Z,75
2016-11-19T08:47:12.538Z,85
2016-11-19T08:48:12.524Z,90
2016-11-19T08:49:12.510Z,90
2016-11-19T08:50:12.498Z,85
2016-11-19T08:51:12.495Z,85
2016-11-19T08:52:12.474Z,85
2016-11-19T08:53:12.474Z,80
2016-11-19T08:54:12.464Z,95
2016-11-19T08:55:12.448Z,85
2016-11-19T08:56:12.439Z,90
2016-11-19T08:57:12.408Z,85
2016-11-19T08:58:12.401Z,95
2016-11-19T08:59:12.405Z,100
2016-11-19T09:00:12.377Z,100
2016-11-19T09:01:12.387Z,95
2016-11-19T09:02:12.356Z,115
2016-11-19T09:03:12.344Z,105
2016-11-19T09:04:12.337Z,95
2016-11-19T09:05:12.324Z,90
2016-11-19T09:06:12.312Z,100
2016-11-19T09:07:12.294Z,110
2016-11-19T09:08:12.278Z,110
2016-11-19T09:09:12.275Z,110
2016-11-19T09:10:12.287Z,105
2016-11-19T09:11:12.250Z,120
2016-11-19T09:12:12.256Z,125
2016-11-19T09:13:12.237Z,125
2016-11-19T09:14:12.267Z,130
2016-11-19T09:15:12.235Z,120
2016-11-19T09:16:12.190Z,115
2016-11-19T09:17:12.191Z,120
2016-11-19T09:18:12.166Z,135
2016-11-19T09:19:12.148Z,130
2016-11-19T09:20:12.148Z,125
2016-11-19T09:21:12.115Z,125
2016-11-19T09:22:12.128Z,130
2016-11-19T09:23:12.197Z,125
2016-11-19T09:24:12.091Z,140
2016-11-19T09:25:12.080Z,135
2016-11-19T09:26:12.084Z,145
2016-11-19T09:27:12.057Z,135
2016-11-19T09:28:12.410Z,135
2016-11-19T09:29:12.037Z,145
2016-11-19T09:30:12.025Z,140
2016-11-19T09:31:12.017Z,135
2016-11-19T09:32:11.988Z,135
2016-11-19T09:33:11.985Z,135
2016-11-19T09:34:11.972Z,125
2016-11-19T09:35:11.963Z,115
2016-11-19T09:36:11.943Z,125
2016-11-19T09:37:11.967Z,125
2016-11-19T09:38:12.258Z,130
2016-11-19T09:39:11.915Z,120
2016-11-19T09:40:11.902Z,125
2016-11-19T09:41:11.947Z,125
2016-11-19T09:44:11.896Z,135
2016-11-19T09:44:20.837Z,135
2016-11-19T09:45:21.095Z,145
2016-11-19T09:46:20.660Z,145
2016-11-19T09:47:20.645Z,140
2016-11-19T09:48:20.637Z,130
2016-11-19T09:49:20.646Z,135
2016-11-19T09:50:20.615Z,130
2016-11-19T09:51:20.601Z,125
2016-11-19T09:52:20.587Z,135
2016-11-19T09:53:20.567Z,130
2016-11-19T09:54:20.570Z,140
2016-11-19T09:55:20.540Z,150
2016-11-19T09:56:20.534Z,145
2016-11-19T09:57:20.561Z,135
2016-11-19T09:58:20.529Z,155
2016-11-19T09:59:20.514Z,150
2016-11-19T10:00:20.494Z,150
2016-11-19T10:01:20.481Z,125
2016-11-19T10:02:20.465Z,130
2016-11-19T10:03:20.461Z,125
2016-11-19T10:04:20.450Z,130
2016-11-19T10:05:20.427Z,130
2016-11-19T10:06:20.443Z,115
2016-11-19T10:07:20.500Z,115
2016-11-19T10:08:20.409Z,125
2016-11-19T10:09:20.496Z,115
2016-11-19T10:10:20.372Z,115
2016-11-19T10:11:20.376Z,130
2016-11-19T10:12:20.353Z,125
2016-11-19T10:13:20.342Z,130
2016-11-19T10:14:20.659Z,130
2016-11-19T10:15:20.330Z,115
2016-11-19T10:16:20.321Z,115
2016-11-19T10:17:20.299Z,115
2016-11-19T10:18:20.295Z,115
2016-11-19T10:19:20.299Z,105
2016-11-19T10:20:20.273Z,105
2016-11-19T10:21:20.250Z,105
2016-11-19T10:22:20.258Z,110
2016-11-19T10:23:20.446Z,105
2016-11-19T10:24:20.232Z,115
2016-11-19T10:25:20.198Z,100
2016-11-19T10:26:20.193Z,90
2016-11-19T10:27:20.187Z,110
2016-11-19T10:28:20.194Z,95
2016-11-19T10:29:20.147Z,105
2016-11-19T10:30:20.146Z,110
2016-11-19T10:31:20.135Z,100
2016-11-19T10:32:20.134Z,90
2016-11-19T10:33:20.098Z,95
2016-11-19T10:34:20.134Z,105
2016-11-19T10:35:20.081Z,85
2016-11-19T10:36:20.087Z,95
2016-11-19T10:37:20.100Z,90
2016-11-19T10:38:20.074Z,75
2016-11-19T10:39:20.090Z,75
2016-11-19T10:41:20.025Z,65
2016-11-19T10:42:20.043Z,65
2016-11-19T10:43:20.007Z,70
2016-11-19T10:44:19.985Z,65
2016-11-19T10:45:19.965Z,70
2016-11-19T10:46:19.960Z,70
2016-11-19T10:47:19.948Z,70
2016-11-19T10:48:19.933Z,65
2016-11-19T10:49:19.925Z,75
2016-11-19T10:50:19.915Z,75
2016-11-19T10:51:19.893Z,80
2016-11-19T10:52:19.880Z,90
2016-11-19T10:53:19.877Z,80
2016-11-19T10:54:19.871Z,75
2016-11-19T10:55:19.851Z,80
2016-11-19T10:56:19.830Z,75
2016-11-19T10:57:19.827Z,70
2016-11-19T10:58:19.820Z,70
2016-11-19T10:59:19.819Z,75
2016-11-19T11:00:19.800Z,75
2016-11-19T11:01:19.773Z,80
2016-11-19T11:02:19.766Z,75
2016-11-19T11:03:19.761Z,80
2016-11-19T11:04:19.747Z,75
2016-11-19T11:05:19.732Z,80
2016-11-19T11:06:19.716Z,75
2016-11-19T11:07:19.698Z,75
2016-11-19T11:08:19.769Z,80
2016-11-19T11:09:19.701Z,80
2016-11-19T11:10:19.684Z,80
2016-11-19T11:11:19.657Z,75
2016-11-19T11:12:19.743Z,75
2016-11-19T11:13:19.662Z,80
2016-11-19T11:14:19.632Z,80
2016-11-19T11:15:19.628Z,90
2016-11-19T11:16:19.821Z,85
2016-11-19T11:17:19.580Z,80
2016-11-19T11:18:19.572Z,70
2016-11-19T11:19:19.887Z,70
2016-11-19T11:20:19.546Z,80
2016-11-19T11:21:19.538Z,95
2016-11-19T11:22:19.527Z,90
2016-11-19T11:23:19.507Z,85
2016-11-19T11:24:19.499Z,70
2016-11-19T11:25:19.505Z,70
2016-11-19T11:26:19.484Z,60
2016-11-19T11:27:19.494Z,60
2016-11-19T11:28:19.462Z,70
2016-11-19T11:29:19.440Z,70
2016-11-19T11:30:19.528Z,55
2016-11-19T11:31:19.465Z,50
2016-11-19T11:32:19.409Z,50
2016-11-19T11:33:19.400Z,50
2016-11-19T11:34:19.381Z,45
2016-11-19T11:35:19.375Z,45
2016-11-19T11:36:19.384Z,45
2016-11-19T11:37:19.526Z,45
2016-11-19T11:38:19.497Z,45
2016-11-19T11:39:19.487Z,50
2016-11-19T11:40:19.309Z,50
2016-11-19T11:41:19.517Z,45
2016-11-19T11:42:19.289Z,45
2016-11-19T11:43:19.442Z,45
2016-11-19T11:44:19.420Z,55
2016-11-19T11:45:19.253Z,50
2016-11-19T11:46:19.339Z,50
2016-11-19T11:47:19.240Z,45
2016-11-19T11:48:19.409Z,45
2016-11-19T11:49:19.466Z,45
2016-11-19T11:50:19.402Z,45
2016-11-19T11:51:19.272Z,50
2016-11-19T11:52:19.281Z,50
2016-11-19T11:53:19.291Z,50
2016-11-19T11:54:19.299Z,50
2016-11-19T11:55:19.299Z,50
2016-11-19T11:56:19.307Z,50
2016-11-19T11:57:19.318Z,50
2016-11-19T11:58:19.229Z,50
2016-11-19T11:59:19.229Z,45
2016-11-19T12:00:19.244Z,45
2016-11-19T12:01:19.242Z,45
2016-11-19T12:02:19.251Z,45
2016-11-19T12:03:19.103Z,45
2016-11-19T12:04:19.260Z,40
2016-11-19T12:05:19.090Z,40
2016-11-19T12:06:19.077Z,35
2016-11-19T12:07:19.426Z,35
2016-11-19T12:08:19.067Z,35
2016-11-19T12:09:19.187Z,30
2016-11-19T12:10:19.056Z,30
2016-11-19T12:11:19.059Z,35
2016-11-19T12:12:19.067Z,35
2016-11-19T12:13:19.040Z,35
2016-11-19T12:14:18.916Z,40
2016-11-19T12:15:18.903Z,40
2016-11-19T12:16:18.889Z,35
2016-11-19T12:17:18.903Z,35
2016-11-19T12:18:18.869Z,35
2016-11-19T12:19:18.853Z,35
2016-11-19T12:20:18.837Z,35
2016-11-19T12:21:18.827Z,40
2016-11-19T12:22:18.819Z,40
2016-11-19T12:23:18.799Z,40
2016-11-19T12:24:19.201Z,40
2016-11-19T12:25:18.779Z,40
2016-11-19T12:26:18.755Z,40
2016-11-19T12:27:18.751Z,40
2016-11-19T12:28:19.230Z,40
2016-11-19T12:29:18.724Z,40
2016-11-19T12:30:18.729Z,35
2016-11-19T12:31:18.732Z,40
2016-11-19T12:32:18.758Z,40
2016-11-19T12:33:18.684Z,35
2016-11-19T12:34:18.682Z,35
2016-11-19T12:35:18.651Z,35
2016-11-19T12:36:18.634Z,40
2016-11-19T12:37:18.627Z,40
2016-11-19T12:38:18.633Z,45
2016-11-19T12:39:18.608Z,45
2016-11-19T12:40:18.594Z,45
2016-11-19T12:41:18.574Z,45
2016-11-19T12:42:18.565Z,45
2016-11-19T12:43:18.575Z,50
2016-11-19T12:44:18.748Z,50
2016-11-19T12:45:18.530Z,55
2016-11-19T12:46:18.849Z,60
2016-11-19T12:47:18.543Z,60
2016-11-19T12:48:18.485Z,65
2016-11-19T12:49:18.469Z,65
2016-11-19T12:50:18.479Z,65
2016-11-19T12:51:18.456Z,65
2016-11-19T12:52:18.436Z,65
2016-11-19T12:53:18.532Z,65
2016-11-19T12:54:18.433Z,70
2016-11-19T12:55:18.393Z,70
2016-11-19T12:56:18.407Z,75
2016-11-19T12:57:18.379Z,75
2016-11-19T12:58:18.380Z,75
2016-11-19T12:59:18.349Z,75
2016-11-19T13:00:18.335Z,75
2016-11-19T13:01:18.326Z,75
2016-11-19T13:02:18.316Z,70
2016-11-19T13:03:18.303Z,70
2016-11-19T13:04:18.290Z,65
2016-11-19T13:05:18.272Z,60
2016-11-19T13:06:18.262Z,60
2016-11-19T13:07:18.289Z,55
2016-11-19T13:08:18.236Z,55
2016-11-19T13:09:18.225Z,55
2016-11-19T13:10:18.210Z,55
2016-11-19T13:11:18.200Z,55
2016-11-19T13:12:18.188Z,60
2016-11-19T13:13:18.187Z,55
2016-11-19T13:14:18.158Z,60
2016-11-19T13:15:18.140Z,60
2016-11-19T13:16:18.190Z,65
2016-11-19T13:17:18.115Z,65
2016-11-19T13:18:18.126Z,65
2016-11-19T13:19:18.095Z,70
2016-11-19T13:20:18.085Z,75
2016-11-19T13:21:18.066Z,70
2016-11-19T13:22:18.437Z,65
2016-11-19T13:23:18.035Z,55
2016-11-19T13:24:18.342Z,45
2016-11-19T13:25:18.038Z,40
2016-11-19T13:26:18.014Z,40
2016-11-19T13:27:18.001Z,40
2016-11-19T13:28:18.008Z,40
2016-11-19T13:29:18.011Z,40
2016-11-19T13:30:18.026Z,40
2016-11-19T13:31:18.027Z,40
2016-11-19T13:32:17.943Z,40
2016-11-19T13:33:17.948Z,40
2016-11-19T13:34:17.978Z,40
2016-11-19T13:35:17.963Z,35
2016-11-19T13:36:17.972Z,40
2016-11-19T13:37:17.966Z,40
2016-11-19T13:38:17.913Z,40
2016-11-19T13:39:17.927Z,40
2016-11-19T13:40:17.925Z,35
2016-11-19T13:41:17.947Z,35
2016-11-19T13:42:17.937Z,30
2016-11-19T13:43:17.945Z,30
2016-11-19T13:44:17.970Z,30
2016-11-19T13:45:17.873Z,25
2016-11-19T13:46:17.898Z,25
2016-11-19T13:47:17.889Z,25
2016-11-19T13:48:17.897Z,25
2016-11-19T13:49:17.915Z,25
2016-11-19T13:50:17.912Z,25
2016-11-19T13:51:17.870Z,20
2016-11-19T13:52:17.839Z,20
2016-11-19T13:53:17.840Z,20
2016-11-19T13:54:17.874Z,15
2016-11-19T13:55:17.898Z,15
2016-11-19T13:56:17.932Z,20
2016-11-19T13:57:17.775Z,20
2016-11-19T13:58:17.775Z,20
2016-11-19T13:59:17.796Z,25
2016-11-19T14:00:17.786Z,25
2016-11-19T14:01:17.804Z,25
2016-11-19T14:02:17.809Z,30
2016-11-19T14:03:17.822Z,30
2016-11-19T14:04:17.807Z,30
2016-11-19T14:05:17.676Z,30
2016-11-19T14:06:17.677Z,30
2016-11-19T14:07:17.662Z,30
2016-11-19T14:08:17.669Z,25
2016-11-19T14:09:17.656Z,25
2016-11-19T14:10:17.646Z,25
2016-11-19T14:11:17.636Z,25
2016-11-19T14:12:17.636Z,30
2016-11-19T14:13:17.643Z,30
2016-11-19T14:14:17.483Z,35
2016-11-19T14:15:17.482Z,35
2016-11-19T14:16:17.484Z,30
2016-11-19T14:17:17.490Z,30
2016-11-19T14:18:17.476Z,30
2016-11-19T14:19:17.308Z,25
2016-11-19T14:20:17.314Z,25
2016-11-19T14:21:17.302Z,25
2016-11-19T14:22:17.334Z,25
2016-11-19T14:23:17.477Z,25
2016-11-19T14:24:17.643Z,25
2016-11-19T14:25:17.228Z,20
2016-11-19T14:26:17.225Z,20
2016-11-19T14:27:17.206Z,20
2016-11-19T14:28:17.199Z,15
2016-11-19T14:29:17.182Z,15
2016-11-19T14:30:17.769Z,15
2016-11-19T14:31:17.159Z,15